sensor_id;sensor_type;location;lat;lon;timestamp;pressure;altitude;pressure_sealevel;temperature;humidity
75549;BME280;64133;56.002;37.208;2023-03-26T00:00:56;97671.33;;;5.57;84.87
75549;BME280;64133;56.002;37.208;2023-03-26T00:06:05;97663.30;;;5.45;84.65
75549;BME280;64133;56.002;37.208;2023-03-26T00:11:10;97668.03;;;5.36;84.80
75549;BME280;64133;56.002;37.208;2023-03-26T00:16:14;97671.86;;;5.32;84.74
75549;BME280;64133;56.002;37.208;2023-03-26T00:21:20;97672.93;;;5.19;84.45
75549;BME280;64133;56.002;37.208;2023-03-26T00:26:23;97672.22;;;5.17;84.62
75549;BME280;64133;56.002;37.208;2023-03-26T00:31:28;97672.06;;;5.09;84.57
75549;BME280;64133;56.002;37.208;2023-03-26T00:36:33;97669.57;;;4.98;84.49
75549;BME280;64133;56.002;37.208;2023-03-26T00:41:39;97665.31;;;4.82;84.58
75549;BME280;64133;56.002;37.208;2023-03-26T00:46:44;97656.41;;;4.69;84.64
75549;BME280;64133;56.002;37.208;2023-03-26T00:51:49;97655.23;;;4.52;84.70
75549;BME280;64133;56.002;37.208;2023-03-26T00:56:53;97656.45;;;4.48;84.97
75549;BME280;64133;56.002;37.208;2023-03-26T01:01:58;97653.93;;;4.52;84.88
75549;BME280;64133;56.002;37.208;2023-03-26T01:07:03;97641.46;;;4.56;84.79
75549;BME280;64133;56.002;37.208;2023-03-26T01:12:08;97645.09;;;4.49;84.78
75549;BME280;64133;56.002;37.208;2023-03-26T01:17:12;97634.50;;;4.66;85.07
75549;BME280;64133;56.002;37.208;2023-03-26T01:22:18;97638.55;;;4.64;84.79
75549;BME280;64133;56.002;37.208;2023-03-26T01:27:28;97633.48;;;4.63;84.89
75549;BME280;64133;56.002;37.208;2023-03-26T01:32:37;97637.67;;;4.69;84.79
75549;BME280;64133;56.002;37.208;2023-03-26T01:37:44;97640.88;;;4.58;84.68
75549;BME280;64133;56.002;37.208;2023-03-26T01:42:50;97658.96;;;4.44;84.64
75549;BME280;64133;56.002;37.208;2023-03-26T01:47:52;97651.23;;;4.33;84.71
75549;BME280;64133;56.002;37.208;2023-03-26T01:52:57;97652.78;;;4.29;84.72
75549;BME280;64133;56.002;37.208;2023-03-26T01:58:04;97651.05;;;4.24;84.81
75549;BME280;64133;56.002;37.208;2023-03-26T02:03:21;97642.17;;;4.21;84.87
75549;BME280;64133;56.002;37.208;2023-03-26T02:08:26;97638.31;;;4.16;84.91
75549;BME280;64133;56.002;37.208;2023-03-26T02:13:30;97629.34;;;4.09;84.94
75549;BME280;64133;56.002;37.208;2023-03-26T02:18:35;97629.05;;;4.02;85.20
75549;BME280;64133;56.002;37.208;2023-03-26T02:23:40;97631.41;;;3.99;85.39
75549;BME280;64133;56.002;37.208;2023-03-26T02:28:45;97634.02;;;3.99;85.53
75549;BME280;64133;56.002;37.208;2023-03-26T02:33:49;97634.55;;;4.09;85.61
75549;BME280;64133;56.002;37.208;2023-03-26T02:38:54;97624.89;;;4.05;85.41
75549;BME280;64133;56.002;37.208;2023-03-26T02:43:58;97616.13;;;4.00;85.32
75549;BME280;64133;56.002;37.208;2023-03-26T02:49:03;97606.17;;;4.06;85.34
75549;BME280;64133;56.002;37.208;2023-03-26T02:54:08;97596.23;;;4.05;85.25
75549;BME280;64133;56.002;37.208;2023-03-26T02:59:12;97595.61;;;4.07;85.26
75549;BME280;64133;56.002;37.208;2023-03-26T03:04:17;97594.66;;;4.08;85.30
75549;BME280;64133;56.002;37.208;2023-03-26T03:09:22;97586.63;;;4.06;85.40
75549;BME280;64133;56.002;37.208;2023-03-26T03:14:26;97578.77;;;4.11;85.66
75549;BME280;64133;56.002;37.208;2023-03-26T03:19:31;97582.77;;;4.15;85.75
75549;BME280;64133;56.002;37.208;2023-03-26T03:24:35;97576.55;;;4.22;85.87
75549;BME280;64133;56.002;37.208;2023-03-26T03:29:40;97572.13;;;4.28;85.86
75549;BME280;64133;56.002;37.208;2023-03-26T03:34:45;97570.69;;;4.29;86.00
75549;BME280;64133;56.002;37.208;2023-03-26T03:39:49;97561.48;;;4.41;86.11
75549;BME280;64133;56.002;37.208;2023-03-26T03:44:54;97549.47;;;4.44;85.96
75549;BME280;64133;56.002;37.208;2023-03-26T03:50:01;97563.55;;;4.47;85.95
75549;BME280;64133;56.002;37.208;2023-03-26T03:55:07;97550.60;;;4.51;85.95
75549;BME280;64133;56.002;37.208;2023-03-26T04:00:14;97546.86;;;4.59;85.94
75549;BME280;64133;56.002;37.208;2023-03-26T04:05:18;97548.09;;;4.65;85.84
75549;BME280;64133;56.002;37.208;2023-03-26T04:10:23;97540.02;;;4.68;85.82
75549;BME280;64133;56.002;37.208;2023-03-26T04:15:28;97542.08;;;4.74;85.87
75549;BME280;64133;56.002;37.208;2023-03-26T04:20:33;97542.38;;;4.81;85.86
75549;BME280;64133;56.002;37.208;2023-03-26T04:25:37;97537.91;;;4.87;85.83
75549;BME280;64133;56.002;37.208;2023-03-26T04:30:42;97532.21;;;4.87;85.78
75549;BME280;64133;56.002;37.208;2023-03-26T04:35:46;97526.33;;;4.95;85.86
75549;BME280;64133;56.002;37.208;2023-03-26T04:40:51;97519.73;;;5.00;85.80
75549;BME280;64133;56.002;37.208;2023-03-26T04:45:56;97521.81;;;5.07;85.72
75549;BME280;64133;56.002;37.208;2023-03-26T04:51:00;97524.61;;;5.09;85.71
75549;BME280;64133;56.002;37.208;2023-03-26T04:56:08;97517.21;;;5.24;85.75
75549;BME280;64133;56.002;37.208;2023-03-26T05:01:11;97513.84;;;5.27;85.40
75549;BME280;64133;56.002;37.208;2023-03-26T05:06:16;97505.37;;;5.39;85.30
75549;BME280;64133;56.002;37.208;2023-03-26T05:11:21;97501.08;;;5.67;85.11
75549;BME280;64133;56.002;37.208;2023-03-26T05:16:26;97496.03;;;5.79;84.59
75549;BME280;64133;56.002;37.208;2023-03-26T05:21:30;97493.32;;;5.95;84.34
75549;BME280;64133;56.002;37.208;2023-03-26T05:26:35;97493.71;;;6.00;83.92
75549;BME280;64133;56.002;37.208;2023-03-26T05:31:40;97497.46;;;5.88;83.71
75549;BME280;64133;56.002;37.208;2023-03-26T05:36:47;97491.42;;;5.77;83.93
75549;BME280;64133;56.002;37.208;2023-03-26T05:41:52;97494.42;;;5.83;84.05
75549;BME280;64133;56.002;37.208;2023-03-26T05:46:56;97492.27;;;5.68;84.04
75549;BME280;64133;56.002;37.208;2023-03-26T05:52:01;97485.34;;;5.87;84.38
75549;BME280;64133;56.002;37.208;2023-03-26T05:57:05;97480.75;;;6.08;84.26
75549;BME280;64133;56.002;37.208;2023-03-26T06:02:10;97480.47;;;6.11;84.07
75549;BME280;64133;56.002;37.208;2023-03-26T06:07:15;97476.88;;;5.98;83.98
75549;BME280;64133;56.002;37.208;2023-03-26T06:12:19;97471.02;;;5.91;84.19
75549;BME280;64133;56.002;37.208;2023-03-26T06:17:24;97464.41;;;6.06;84.64
75549;BME280;64133;56.002;37.208;2023-03-26T06:22:29;97459.50;;;6.35;84.80
75549;BME280;64133;56.002;37.208;2023-03-26T06:27:33;97458.89;;;6.37;84.41
75549;BME280;64133;56.002;37.208;2023-03-26T06:32:38;97459.88;;;6.40;84.63
75549;BME280;64133;56.002;37.208;2023-03-26T06:37:43;97447.83;;;6.43;84.17
75549;BME280;64133;56.002;37.208;2023-03-26T06:42:47;97444.25;;;6.30;84.15
75549;BME280;64133;56.002;37.208;2023-03-26T06:47:52;97439.36;;;6.17;84.19
75549;BME280;64133;56.002;37.208;2023-03-26T06:52:57;97434.81;;;6.33;84.21
75549;BME280;64133;56.002;37.208;2023-03-26T06:58:01;97432.64;;;6.28;84.11
75549;BME280;64133;56.002;37.208;2023-03-26T07:03:06;97427.59;;;6.45;84.20
75549;BME280;64133;56.002;37.208;2023-03-26T07:08:10;97429.16;;;6.55;83.60
75549;BME280;64133;56.002;37.208;2023-03-26T07:13:15;97431.07;;;6.49;83.69
75549;BME280;64133;56.002;37.208;2023-03-26T07:18:21;97421.97;;;6.71;83.60
75549;BME280;64133;56.002;37.208;2023-03-26T07:23:27;97426.83;;;6.84;83.46
75549;BME280;64133;56.002;37.208;2023-03-26T07:28:33;97428.02;;;6.54;83.26
75549;BME280;64133;56.002;37.208;2023-03-26T07:33:40;97421.47;;;6.54;83.57
75549;BME280;64133;56.002;37.208;2023-03-26T07:38:48;97420.53;;;6.59;83.70
75549;BME280;64133;56.002;37.208;2023-03-26T07:49:22;97417.30;;;6.47;83.74
75549;BME280;64133;56.002;37.208;2023-03-26T07:54:27;97409.45;;;6.83;83.78
75549;BME280;64133;56.002;37.208;2023-03-26T07:59:33;97403.00;;;6.73;83.54
75549;BME280;64133;56.002;37.208;2023-03-26T08:04:52;97405.20;;;6.82;83.46
75549;BME280;64133;56.002;37.208;2023-03-26T08:10:00;97389.45;;;6.96;83.41
75549;BME280;64133;56.002;37.208;2023-03-26T08:15:07;97382.54;;;6.91;83.64
75549;BME280;64133;56.002;37.208;2023-03-26T08:20:13;97377.44;;;7.07;83.57
75549;BME280;64133;56.002;37.208;2023-03-26T08:25:25;97369.73;;;7.27;83.28
75549;BME280;64133;56.002;37.208;2023-03-26T08:30:30;97362.33;;;7.27;83.03
75549;BME280;64133;56.002;37.208;2023-03-26T08:35:33;97355.27;;;7.19;82.84
75549;BME280;64133;56.002;37.208;2023-03-26T08:40:53;97351.75;;;7.07;83.00
75549;BME280;64133;56.002;37.208;2023-03-26T08:46:14;97344.00;;;7.23;82.97
75549;BME280;64133;56.002;37.208;2023-03-26T08:57:10;97315.69;;;7.61;81.49
75549;BME280;64133;56.002;37.208;2023-03-26T09:14:48;97285.98;;;7.90;79.18
75549;BME280;64133;56.002;37.208;2023-03-26T09:26:24;97262.36;;;7.36;79.54
75549;BME280;64133;56.002;37.208;2023-03-26T09:38:09;97247.44;;;7.24;80.41
75549;BME280;64133;56.002;37.208;2023-03-26T09:43:27;97241.80;;;7.07;80.11
75549;BME280;64133;56.002;37.208;2023-03-26T10:00:15;97232.98;;;6.82;81.46
75549;BME280;64133;56.002;37.208;2023-03-26T10:11:28;97234.64;;;6.87;81.74
75549;BME280;64133;56.002;37.208;2023-03-26T10:16:54;97250.23;;;6.70;81.78
75549;BME280;64133;56.002;37.208;2023-03-26T10:22:00;97251.30;;;6.82;81.83
75549;BME280;64133;56.002;37.208;2023-03-26T10:27:09;97252.20;;;6.68;81.69
75549;BME280;64133;56.002;37.208;2023-03-26T10:32:20;97224.15;;;6.83;82.05
75549;BME280;64133;56.002;37.208;2023-03-26T10:37:28;97211.45;;;6.96;82.44
75549;BME280;64133;56.002;37.208;2023-03-26T10:42:57;97215.32;;;6.79;82.79
75549;BME280;64133;56.002;37.208;2023-03-26T10:48:21;97209.41;;;6.77;83.63
75549;BME280;64133;56.002;37.208;2023-03-26T10:53:31;97203.42;;;6.59;83.72
75549;BME280;64133;56.002;37.208;2023-03-26T10:58:35;97203.14;;;6.70;83.92
75549;BME280;64133;56.002;37.208;2023-03-26T11:09:11;97199.80;;;6.86;84.28
75549;BME280;64133;56.002;37.208;2023-03-26T11:14:16;97191.25;;;6.76;84.29
75549;BME280;64133;56.002;37.208;2023-03-26T11:19:23;97186.98;;;6.71;84.61
75549;BME280;64133;56.002;37.208;2023-03-26T11:24:38;97168.33;;;6.74;84.58
75549;BME280;64133;56.002;37.208;2023-03-26T11:30:09;97174.53;;;7.03;84.74
75549;BME280;64133;56.002;37.208;2023-03-26T11:35:16;97175.58;;;7.18;84.58
75549;BME280;64133;56.002;37.208;2023-03-26T11:40:20;97162.94;;;7.14;83.98
75549;BME280;64133;56.002;37.208;2023-03-26T11:45:27;97164.41;;;7.12;84.41
75549;BME280;64133;56.002;37.208;2023-03-26T11:50:32;97165.57;;;7.18;84.39
75549;BME280;64133;56.002;37.208;2023-03-26T11:55:36;97165.91;;;7.15;84.55
75549;BME280;64133;56.002;37.208;2023-03-26T12:00:41;97167.91;;;6.87;84.37
75549;BME280;64133;56.002;37.208;2023-03-26T12:05:51;97165.73;;;6.78;84.69
75549;BME280;64133;56.002;37.208;2023-03-26T12:10:58;97154.91;;;6.69;84.90
75549;BME280;64133;56.002;37.208;2023-03-26T12:16:07;97148.92;;;6.80;84.99
75549;BME280;64133;56.002;37.208;2023-03-26T12:21:12;97145.79;;;6.77;84.93
75549;BME280;64133;56.002;37.208;2023-03-26T12:26:17;97137.90;;;6.69;85.00
75549;BME280;64133;56.002;37.208;2023-03-26T12:31:21;97135.30;;;6.73;85.11
75549;BME280;64133;56.002;37.208;2023-03-26T12:36:27;97130.58;;;6.76;85.31
75549;BME280;64133;56.002;37.208;2023-03-26T12:41:38;97120.09;;;6.72;85.39
75549;BME280;64133;56.002;37.208;2023-03-26T12:46:42;97111.47;;;6.80;85.54
75549;BME280;64133;56.002;37.208;2023-03-26T12:51:49;97107.91;;;6.89;85.51
75549;BME280;64133;56.002;37.208;2023-03-26T12:56:59;97110.66;;;6.88;85.67
75549;BME280;64133;56.002;37.208;2023-03-26T13:02:10;97107.42;;;6.94;85.44
75549;BME280;64133;56.002;37.208;2023-03-26T13:07:19;97106.42;;;6.91;85.49
75549;BME280;64133;56.002;37.208;2023-03-26T13:12:27;97101.70;;;6.94;85.54
75549;BME280;64133;56.002;37.208;2023-03-26T13:17:42;97100.39;;;6.94;85.52
75549;BME280;64133;56.002;37.208;2023-03-26T13:22:49;97097.94;;;6.93;85.65
75549;BME280;64133;56.002;37.208;2023-03-26T13:27:57;97097.32;;;7.07;85.77
75549;BME280;64133;56.002;37.208;2023-03-26T13:33:17;97087.88;;;7.18;85.76
75549;BME280;64133;56.002;37.208;2023-03-26T13:39:00;97090.47;;;7.22;85.74
75549;BME280;64133;56.002;37.208;2023-03-26T13:44:16;97052.47;;;6.98;85.78
75549;BME280;64133;56.002;37.208;2023-03-26T13:49:26;97081.47;;;7.17;85.84
75549;BME280;64133;56.002;37.208;2023-03-26T13:54:54;97080.98;;;7.21;85.88
75549;BME280;64133;56.002;37.208;2023-03-26T14:12:15;97072.81;;;7.24;85.91
75549;BME280;64133;56.002;37.208;2023-03-26T14:17:20;97071.18;;;7.23;85.91
75549;BME280;64133;56.002;37.208;2023-03-26T14:22:26;97068.70;;;7.22;86.03
75549;BME280;64133;56.002;37.208;2023-03-26T14:27:45;97080.65;;;7.16;86.08
75549;BME280;64133;56.002;37.208;2023-03-26T14:32:55;97078.70;;;7.18;86.24
75549;BME280;64133;56.002;37.208;2023-03-26T14:38:18;97073.93;;;7.18;86.25
75549;BME280;64133;56.002;37.208;2023-03-26T14:49:01;97079.34;;;7.20;86.54
75549;BME280;64133;56.002;37.208;2023-03-26T14:54:07;97075.72;;;7.13;86.58
75549;BME280;64133;56.002;37.208;2023-03-26T15:11:06;97066.56;;;7.13;86.88
75549;BME280;64133;56.002;37.208;2023-03-26T15:28:48;97056.56;;;7.04;87.01
75549;BME280;64133;56.002;37.208;2023-03-26T15:39:53;97059.03;;;7.02;87.27
75549;BME280;64133;56.002;37.208;2023-03-26T15:45:10;97060.31;;;6.94;87.33
75549;BME280;64133;56.002;37.208;2023-03-26T15:50:31;97063.10;;;6.92;87.33
75549;BME280;64133;56.002;37.208;2023-03-26T15:55:37;97074.03;;;6.92;87.48
75549;BME280;64133;56.002;37.208;2023-03-26T16:00:53;97077.48;;;6.88;87.50
75549;BME280;64133;56.002;37.208;2023-03-26T16:06:18;97079.59;;;6.85;87.55
75549;BME280;64133;56.002;37.208;2023-03-26T16:11:47;97078.27;;;6.80;87.60
75549;BME280;64133;56.002;37.208;2023-03-26T16:17:18;97072.22;;;6.80;87.76
75549;BME280;64133;56.002;37.208;2023-03-26T16:22:55;97081.69;;;6.77;87.84
75549;BME280;64133;56.002;37.208;2023-03-26T16:29:03;97081.19;;;6.77;87.95
75549;BME280;64133;56.002;37.208;2023-03-26T16:34:20;97088.87;;;6.79;88.02
75549;BME280;64133;56.002;37.208;2023-03-26T16:39:36;97090.67;;;6.78;88.06
75549;BME280;64133;56.002;37.208;2023-03-26T16:44:39;97083.48;;;6.76;88.09
75549;BME280;64133;56.002;37.208;2023-03-26T16:50:03;97085.80;;;6.79;88.19
75549;BME280;64133;56.002;37.208;2023-03-26T16:55:11;97083.02;;;6.85;88.27
75549;BME280;64133;56.002;37.208;2023-03-26T17:00:50;97083.14;;;6.71;87.97
75549;BME280;64133;56.002;37.208;2023-03-26T17:06:04;97093.27;;;6.66;88.16
75549;BME280;64133;56.002;37.208;2023-03-26T17:11:18;97096.17;;;6.59;88.10
75549;BME280;64133;56.002;37.208;2023-03-26T17:16:16;97099.28;;;6.59;88.19
75549;BME280;64133;56.002;37.208;2023-03-26T17:21:20;97062.70;;;6.33;88.12
75549;BME280;64133;56.002;37.208;2023-03-26T17:26:30;97105.64;;;6.60;88.08
75549;BME280;64133;56.002;37.208;2023-03-26T17:43:06;97107.89;;;6.51;87.85
75549;BME280;64133;56.002;37.208;2023-03-26T17:48:15;97116.48;;;6.39;87.62
75549;BME280;64133;56.002;37.208;2023-03-26T17:53:21;97115.24;;;6.21;87.49
75549;BME280;64133;56.002;37.208;2023-03-26T17:58:25;97118.45;;;6.11;87.65
75549;BME280;64133;56.002;37.208;2023-03-26T18:03:31;97113.63;;;5.98;87.68
75549;BME280;64133;56.002;37.208;2023-03-26T18:08:44;97119.25;;;5.90;87.65
75549;BME280;64133;56.002;37.208;2023-03-26T18:19:25;97114.90;;;5.76;87.92
75549;BME280;64133;56.002;37.208;2023-03-26T18:24:30;97114.66;;;5.70;87.87
75549;BME280;64133;56.002;37.208;2023-03-26T18:29:35;97118.05;;;5.62;87.91
75549;BME280;64133;56.002;37.208;2023-03-26T18:34:45;97114.17;;;5.66;88.05
75549;BME280;64133;56.002;37.208;2023-03-26T18:39:55;97118.09;;;5.66;87.98
75549;BME280;64133;56.002;37.208;2023-03-26T18:44:59;97113.78;;;5.61;87.91
75549;BME280;64133;56.002;37.208;2023-03-26T18:50:05;97114.02;;;5.50;87.79
75549;BME280;64133;56.002;37.208;2023-03-26T18:55:11;97119.57;;;5.51;87.97
75549;BME280;64133;56.002;37.208;2023-03-26T19:00:19;97111.13;;;5.53;87.93
75549;BME280;64133;56.002;37.208;2023-03-26T19:05:26;97120.67;;;5.44;87.70
75549;BME280;64133;56.002;37.208;2023-03-26T19:10:32;97118.19;;;5.43;87.79
75549;BME280;64133;56.002;37.208;2023-03-26T19:15:36;97121.86;;;5.50;87.77
75549;BME280;64133;56.002;37.208;2023-03-26T19:20:43;97123.57;;;5.41;87.58
75549;BME280;64133;56.002;37.208;2023-03-26T19:25:47;97126.91;;;5.34;87.64
75549;BME280;64133;56.002;37.208;2023-03-26T19:30:54;97126.63;;;5.37;87.66
75549;BME280;64133;56.002;37.208;2023-03-26T19:36:02;97128.70;;;5.33;87.50
75549;BME280;64133;56.002;37.208;2023-03-26T19:41:12;97138.17;;;5.34;87.47
75549;BME280;64133;56.002;37.208;2023-03-26T19:46:17;97137.36;;;5.34;87.42
75549;BME280;64133;56.002;37.208;2023-03-26T19:51:23;97126.95;;;5.38;87.38
75549;BME280;64133;56.002;37.208;2023-03-26T19:56:27;97127.73;;;5.34;87.28
75549;BME280;64133;56.002;37.208;2023-03-26T20:01:32;97128.63;;;5.25;87.23
75549;BME280;64133;56.002;37.208;2023-03-26T20:06:38;97121.36;;;5.33;87.18
75549;BME280;64133;56.002;37.208;2023-03-26T20:11:42;97129.44;;;5.25;87.12
75549;BME280;64133;56.002;37.208;2023-03-26T20:16:47;97134.98;;;5.22;87.15
75549;BME280;64133;56.002;37.208;2023-03-26T20:21:52;97139.30;;;5.18;87.20
75549;BME280;64133;56.002;37.208;2023-03-26T20:26:56;97140.20;;;5.22;87.21
75549;BME280;64133;56.002;37.208;2023-03-26T20:32:01;97138.16;;;5.16;87.15
75549;BME280;64133;56.002;37.208;2023-03-26T20:37:05;97143.33;;;5.12;87.16
75549;BME280;64133;56.002;37.208;2023-03-26T20:42:10;97143.33;;;5.12;87.15
75549;BME280;64133;56.002;37.208;2023-03-26T20:47:15;97143.00;;;5.11;87.15
75549;BME280;64133;56.002;37.208;2023-03-26T20:52:19;97146.58;;;5.10;87.20
75549;BME280;64133;56.002;37.208;2023-03-26T20:57:24;97154.25;;;5.12;87.21
75549;BME280;64133;56.002;37.208;2023-03-26T21:02:29;97161.88;;;5.09;87.26
75549;BME280;64133;56.002;37.208;2023-03-26T21:07:34;97157.96;;;5.09;87.25
75549;BME280;64133;56.002;37.208;2023-03-26T21:12:40;97170.68;;;5.08;87.30
75549;BME280;64133;56.002;37.208;2023-03-26T21:17:45;97162.90;;;5.12;87.42
75549;BME280;64133;56.002;37.208;2023-03-26T21:22:54;97163.05;;;5.11;87.20
75549;BME280;64133;56.002;37.208;2023-03-26T21:28:03;97172.69;;;4.96;87.24
75549;BME280;64133;56.002;37.208;2023-03-26T21:33:07;97173.14;;;4.96;87.34
75549;BME280;64133;56.002;37.208;2023-03-26T21:38:12;97174.44;;;4.96;87.49
75549;BME280;64133;56.002;37.208;2023-03-26T21:43:18;97179.71;;;5.00;87.42
75549;BME280;64133;56.002;37.208;2023-03-26T21:48:23;97182.42;;;4.94;87.55
75549;BME280;64133;56.002;37.208;2023-03-26T21:53:29;97186.34;;;4.94;87.49
75549;BME280;64133;56.002;37.208;2023-03-26T21:58:40;97126.95;;;4.51;87.36
75549;BME280;64133;56.002;37.208;2023-03-26T22:03:53;97198.73;;;4.83;87.47
75549;BME280;64133;56.002;37.208;2023-03-26T22:08:56;97198.84;;;4.91;87.65
75549;BME280;64133;56.002;37.208;2023-03-26T22:14:01;97202.91;;;4.89;87.45
75549;BME280;64133;56.002;37.208;2023-03-26T22:19:06;97196.05;;;4.88;87.59
75549;BME280;64133;56.002;37.208;2023-03-26T22:24:11;97205.36;;;4.91;87.52
75549;BME280;64133;56.002;37.208;2023-03-26T22:29:16;97209.32;;;4.81;87.52
75549;BME280;64133;56.002;37.208;2023-03-26T22:34:20;97214.53;;;4.81;87.50
75549;BME280;64133;56.002;37.208;2023-03-26T22:39:25;97218.23;;;4.78;87.53
75549;BME280;64133;56.002;37.208;2023-03-26T22:44:30;97220.13;;;4.72;87.43
75549;BME280;64133;56.002;37.208;2023-03-26T22:49:34;97212.24;;;4.68;87.41
75549;BME280;64133;56.002;37.208;2023-03-26T22:54:39;97215.84;;;4.81;87.56
75549;BME280;64133;56.002;37.208;2023-03-26T22:59:44;97207.53;;;4.82;87.42
75549;BME280;64133;56.002;37.208;2023-03-26T23:04:48;97209.53;;;4.84;87.30
75549;BME280;64133;56.002;37.208;2023-03-26T23:09:53;97203.77;;;4.80;87.09
75549;BME280;64133;56.002;37.208;2023-03-26T23:14:58;97202.00;;;4.47;86.96
75549;BME280;64133;56.002;37.208;2023-03-26T23:20:02;97214.53;;;4.24;87.24
75549;BME280;64133;56.002;37.208;2023-03-26T23:25:09;97205.02;;;4.19;87.68
75549;BME280;64133;56.002;37.208;2023-03-26T23:30:15;97208.23;;;4.27;87.81
75549;BME280;64133;56.002;37.208;2023-03-26T23:35:19;97216.32;;;4.24;87.61
75549;BME280;64133;56.002;37.208;2023-03-26T23:40:24;97205.70;;;4.31;87.65
75549;BME280;64133;56.002;37.208;2023-03-26T23:45:28;97218.24;;;4.32;87.51
75549;BME280;64133;56.002;37.208;2023-03-26T23:50:33;97218.17;;;4.27;87.45
75549;BME280;64133;56.002;37.208;2023-03-26T23:55:38;97223.17;;;4.25;87.40
